createdAt,value
2022-08-19T05:39:39.371Z,24.45
2022-08-19T05:42:09.163Z,24.41
2022-08-19T05:44:39.286Z,24.38
2022-08-19T05:47:07.562Z,24.36
2022-08-19T05:49:35.246Z,24.31
2022-08-19T05:52:11.764Z,24.35
2022-08-19T05:54:43.796Z,24.20
2022-08-19T05:57:11.730Z,24.15
2022-08-19T05:59:39.938Z,24.09
2022-08-19T06:02:07.567Z,24.03
2022-08-19T06:04:35.254Z,23.95
2022-08-19T06:07:12.581Z,23.91
2022-08-19T06:09:40.508Z,23.85
2022-08-19T06:12:07.571Z,23.78
2022-08-19T06:14:40.189Z,23.75
2022-08-19T06:17:08.632Z,23.69
2022-08-19T06:19:40.920Z,23.64
2022-08-19T06:22:08.430Z,23.61
2022-08-19T06:24:36.204Z,23.57
2022-08-19T06:27:06.512Z,23.54
2022-08-19T06:29:33.691Z,23.51
2022-08-19T06:32:04.071Z,23.49
2022-08-19T06:34:33.588Z,23.48
2022-08-19T06:37:04.562Z,23.42
2022-08-19T06:39:33.881Z,23.43
2022-08-19T06:42:02.399Z,23.39
2022-08-19T06:44:35.381Z,23.39
2022-08-19T06:47:14.332Z,23.35
2022-08-19T06:49:42.021Z,23.33
2022-08-19T06:52:09.221Z,23.31
2022-08-19T06:54:53.717Z,23.31
2022-08-19T06:57:23.460Z,23.32
2022-08-19T06:59:50.069Z,23.33
2022-08-19T07:05:04.628Z,23.34
2022-08-19T07:07:33.662Z,23.32
2022-08-19T07:10:02.026Z,23.32
2022-08-19T07:12:38.174Z,23.32
2022-08-19T07:15:06.388Z,23.32
2022-08-19T07:17:34.650Z,23.31
2022-08-19T07:20:06.775Z,23.32
2022-08-19T07:22:35.008Z,23.33
2022-08-19T07:25:03.932Z,23.32
2022-08-19T07:27:30.831Z,23.34
2022-08-19T07:30:00.853Z,23.38
2022-08-19T07:32:27.889Z,23.41
2022-08-19T07:34:55.263Z,23.45
2022-08-19T07:37:23.292Z,23.48
2022-08-19T07:39:49.901Z,23.54
2022-08-19T07:42:18.125Z,23.57
2022-08-19T07:44:50.103Z,23.61
2022-08-19T07:47:49.207Z,23.65
2022-08-19T07:50:09.011Z,23.71
2022-08-19T07:52:37.276Z,23.73
2022-08-19T07:55:05.356Z,23.78
2022-08-19T07:57:32.269Z,23.84
2022-08-19T07:59:59.697Z,23.89
2022-08-19T08:02:26.223Z,23.96
2022-08-19T08:05:10.980Z,24.04
2022-08-19T08:07:56.142Z,24.11
2022-08-19T08:10:24.445Z,24.19
2022-08-19T08:13:05.854Z,24.21
2022-08-19T08:15:42.122Z,24.28
2022-08-19T08:18:09.493Z,24.35
2022-08-19T08:20:36.179Z,24.41
2022-08-19T08:23:21.063Z,24.49
2022-08-19T08:25:49.368Z,24.57
2022-08-19T08:28:19.865Z,24.68
2022-08-19T08:30:49.177Z,24.80
2022-08-19T08:33:33.294Z,24.93
2022-08-19T08:36:11.929Z,24.97
2022-08-19T08:38:40.797Z,25.05
2022-08-19T08:41:43.486Z,25.24
2022-08-19T08:44:19.960Z,25.20
2022-08-19T08:46:52.964Z,25.21
2022-08-19T08:49:30.046Z,25.27
2022-08-19T08:52:11.088Z,25.34
2022-08-19T08:54:54.782Z,25.33
2022-08-19T09:00:01.379Z,25.38
2022-08-19T09:02:27.878Z,25.37
2022-08-19T09:04:56.102Z,25.42
2022-08-19T09:08:04.153Z,25.58
2022-08-19T09:10:55.337Z,25.56
2022-08-19T09:13:26.776Z,25.60
2022-08-19T09:16:02.561Z,25.62
2022-08-19T09:18:41.794Z,25.69
2022-08-19T09:21:09.794Z,25.61
2022-08-19T09:23:37.742Z,25.64
2022-08-19T09:26:14.582Z,25.71
2022-08-19T09:28:45.465Z,25.71
2022-08-19T09:31:18.012Z,25.74
2022-08-19T09:33:44.803Z,25.77
2022-08-19T09:36:14.794Z,25.84
2022-08-19T09:38:56.806Z,25.87
2022-08-19T09:41:25.911Z,25.92
2022-08-19T09:43:57.242Z,26.03
2022-08-19T09:46:27.027Z,26.13
2022-08-19T09:48:54.552Z,26.27
2022-08-19T09:51:27.263Z,26.44
2022-08-19T09:53:57.843Z,26.56
2022-08-19T09:56:24.579Z,26.71
2022-08-19T09:58:51.590Z,26.84
2022-08-19T10:01:24.434Z,26.98
2022-08-19T10:03:55.711Z,27.12
2022-08-19T10:06:44.052Z,27.24
2022-08-19T10:09:11.975Z,27.39
2022-08-19T10:11:46.901Z,27.54
2022-08-19T10:14:23.502Z,27.68
2022-08-19T10:16:50.470Z,27.80
2022-08-19T10:19:26.149Z,27.95
2022-08-19T10:21:54.003Z,28.10
2022-08-19T10:24:21.701Z,28.22
2022-08-19T10:26:57.088Z,28.33
2022-08-19T10:29:32.553Z,28.44
2022-08-19T10:32:09.653Z,28.60
2022-08-19T10:34:48.171Z,28.90
2022-08-19T10:37:15.039Z,28.79
2022-08-19T10:39:48.954Z,28.87
2022-08-19T10:42:17.154Z,28.94
2022-08-19T10:44:43.700Z,29.04
2022-08-19T10:47:17.610Z,29.15
2022-08-19T10:50:11.986Z,29.29
2022-08-19T10:52:39.642Z,29.39
2022-08-19T10:55:34.854Z,29.50
2022-08-19T10:58:02.853Z,29.62
2022-08-19T11:00:30.142Z,29.71
2022-08-19T11:02:56.827Z,29.83
2022-08-19T11:05:24.304Z,29.95
2022-08-19T11:07:52.966Z,30.08
2022-08-19T11:10:22.491Z,30.20
2022-08-19T11:12:49.558Z,30.32
2022-08-19T11:15:16.849Z,30.45
2022-08-19T11:17:44.489Z,30.55
2022-08-19T11:20:15.906Z,30.65
2022-08-19T11:22:43.276Z,30.70
2022-08-19T11:25:11.802Z,30.76
2022-08-19T11:27:42.594Z,30.81
2022-08-19T11:30:13.127Z,30.87
2022-08-19T11:32:43.591Z,30.96
2022-08-19T11:35:14.599Z,31.02
2022-08-19T11:37:41.750Z,31.11
2022-08-19T11:40:09.350Z,31.20
2022-08-19T11:42:54.869Z,31.30
2022-08-19T11:45:21.980Z,31.39
2022-08-19T11:47:48.890Z,31.47
2022-08-19T11:50:16.534Z,31.53
2022-08-19T11:52:44.863Z,31.61
2022-08-19T11:55:12.638Z,31.68
2022-08-19T11:57:41.894Z,31.74
2022-08-19T12:00:10.672Z,31.79
2022-08-19T12:02:37.199Z,31.84
2022-08-19T12:05:04.976Z,31.89
2022-08-19T12:07:34.674Z,31.96
2022-08-19T12:10:01.712Z,32.04
2022-08-19T12:12:30.308Z,32.11
2022-08-19T12:14:59.207Z,32.18
2022-08-19T12:17:27.732Z,32.25
2022-08-19T12:19:54.877Z,32.33
2022-08-19T12:22:22.414Z,32.43
2022-08-19T12:24:51.193Z,32.53
2022-08-19T12:27:23.897Z,32.63
2022-08-19T12:30:04.040Z,32.76
2022-08-19T12:32:30.632Z,32.84
2022-08-19T12:34:57.219Z,32.95
2022-08-19T12:37:23.912Z,33.03
2022-08-19T12:39:50.553Z,33.10
2022-08-19T12:42:17.912Z,33.18
2022-08-19T12:44:45.148Z,33.28
2022-08-19T12:47:15.352Z,33.37
2022-08-19T12:49:54.671Z,33.46
2022-08-19T12:52:24.065Z,33.55
2022-08-19T12:54:54.690Z,33.63
2022-08-19T12:57:23.706Z,33.70
2022-08-19T12:59:58.138Z,33.79
2022-08-19T13:02:24.653Z,33.87
2022-08-19T13:04:51.125Z,33.96
2022-08-19T13:07:17.621Z,34.02
2022-08-19T13:09:44.153Z,34.03
2022-08-19T13:12:14.077Z,34.07
2022-08-19T13:14:41.352Z,34.10
2022-08-19T13:17:09.313Z,34.12
2022-08-19T13:19:37.717Z,34.13
2022-08-19T13:22:04.445Z,34.13
2022-08-19T13:24:41.085Z,34.14
2022-08-19T13:27:09.431Z,34.13
2022-08-19T13:29:54.629Z,34.13
2022-08-19T13:32:40.051Z,34.11
2022-08-19T13:35:09.572Z,34.10
2022-08-19T13:37:43.793Z,34.10
2022-08-19T13:40:19.892Z,34.19
2022-08-19T13:42:48.410Z,34.47
2022-08-19T13:45:19.009Z,34.24
2022-08-19T13:47:48.234Z,34.25
2022-08-19T13:50:18.545Z,34.30
2022-08-19T13:52:45.502Z,34.34
2022-08-19T13:55:13.411Z,34.38
2022-08-19T13:57:40.346Z,34.42
2022-08-19T14:00:19.239Z,34.50
2022-08-19T14:02:47.478Z,34.52
2022-08-19T14:05:17.350Z,34.58
2022-08-19T14:07:43.849Z,34.58
2022-08-19T14:10:12.370Z,34.60
2022-08-19T14:12:39.090Z,34.62
2022-08-19T14:15:07.947Z,34.64
2022-08-19T14:17:35.838Z,34.64
2022-08-19T14:20:10.864Z,34.67
2022-08-19T14:22:41.427Z,34.70
2022-08-19T14:25:15.514Z,34.76
2022-08-19T14:27:42.555Z,34.74
2022-08-19T14:30:11.933Z,34.78
2022-08-19T14:32:38.634Z,34.81
2022-08-19T14:35:06.368Z,34.84
2022-08-19T14:37:35.049Z,34.87
2022-08-19T14:40:13.235Z,34.88
2022-08-19T14:42:39.845Z,34.87
2022-08-19T14:45:07.133Z,34.87
2022-08-19T14:47:34.122Z,34.86
2022-08-19T14:50:00.841Z,34.82
2022-08-19T14:52:32.093Z,34.77
2022-08-19T14:54:58.597Z,34.72
2022-08-19T14:57:25.165Z,34.63
2022-08-19T14:59:51.679Z,34.51
2022-08-19T15:02:34.230Z,34.42
2022-08-19T15:05:01.683Z,34.37
2022-08-19T15:07:29.595Z,34.32
2022-08-19T15:09:57.313Z,34.29
2022-08-19T15:12:24.899Z,34.29
2022-08-19T15:14:55.929Z,34.28
2022-08-19T15:17:25.760Z,34.30
2022-08-19T15:20:10.907Z,34.71
2022-08-19T15:22:37.570Z,34.40
2022-08-19T15:25:05.850Z,34.38
2022-08-19T15:27:32.858Z,34.38
2022-08-19T15:30:01.139Z,34.36
2022-08-19T15:32:29.099Z,34.33
2022-08-19T15:34:55.814Z,34.25
2022-08-19T15:37:24.023Z,34.21
2022-08-19T15:39:51.203Z,34.12
2022-08-19T15:42:29.558Z,34.03
2022-08-19T15:45:00.653Z,33.99
2022-08-19T15:47:35.472Z,33.98
2022-08-19T15:50:18.683Z,34.10
2022-08-19T15:52:54.528Z,34.03
2022-08-19T15:55:32.700Z,34.01
2022-08-19T15:58:32.644Z,34.03
2022-08-19T16:01:24.350Z,33.96
2022-08-19T16:04:14.494Z,33.87
2022-08-19T16:06:48.247Z,33.93
2022-08-19T16:09:16.508Z,33.83
2022-08-19T16:11:45.835Z,33.83
2022-08-19T16:14:14.696Z,33.82
2022-08-19T16:16:41.268Z,33.79
2022-08-19T16:19:10.357Z,33.76
2022-08-19T16:21:41.922Z,33.71
2022-08-19T16:24:12.051Z,33.68
2022-08-19T16:26:39.167Z,33.58
2022-08-19T16:29:09.022Z,33.51
2022-08-19T16:31:43.628Z,33.44
2022-08-19T16:34:11.476Z,33.36
2022-08-19T16:36:42.218Z,33.28
2022-08-19T16:39:14.476Z,33.29
2022-08-19T16:41:42.749Z,33.15
2022-08-19T16:44:11.964Z,33.09
2022-08-19T16:46:40.298Z,33.02
2022-08-19T16:49:07.085Z,32.99
2022-08-19T16:51:33.869Z,32.95
2022-08-19T16:54:01.821Z,32.92
2022-08-19T16:56:29.001Z,32.89
2022-08-19T16:58:56.264Z,32.88
2022-08-19T17:01:22.844Z,32.89
2022-08-19T17:03:50.561Z,32.92
2022-08-19T17:06:20.821Z,32.93
2022-08-19T17:08:54.504Z,32.99
2022-08-19T17:11:24.408Z,32.93
2022-08-19T17:13:51.429Z,32.88
2022-08-19T17:16:20.010Z,32.84
2022-08-19T17:18:46.556Z,32.77
2022-08-19T17:21:13.295Z,32.72
2022-08-19T17:23:42.686Z,32.65
2022-08-19T17:26:14.019Z,32.57
2022-08-19T17:28:46.193Z,32.47
2022-08-19T17:31:12.683Z,32.40
2022-08-19T17:33:41.279Z,32.32
2022-08-19T17:36:09.126Z,32.23
2022-08-19T17:38:36.892Z,32.15
2022-08-19T17:41:06.402Z,32.08
2022-08-19T17:43:40.006Z,32.00
2022-08-19T17:46:11.145Z,31.92
2022-08-19T17:48:38.934Z,31.84
2022-08-19T17:51:22.019Z,31.92
2022-08-19T17:53:50.850Z,31.68
2022-08-19T17:56:17.550Z,31.61
2022-08-19T17:58:45.009Z,31.55
2022-08-19T18:01:24.734Z,31.52
2022-08-19T18:03:52.827Z,31.49
2022-08-19T18:06:19.338Z,31.43
2022-08-19T18:08:49.096Z,31.41
2022-08-19T18:11:16.931Z,31.38
2022-08-19T18:13:43.474Z,31.32
2022-08-19T18:16:11.329Z,31.29
2022-08-19T18:18:41.997Z,31.30
2022-08-19T18:21:10.014Z,31.21
2022-08-19T18:23:44.201Z,31.15
2022-08-19T18:26:12.452Z,31.12
2022-08-19T18:28:39.901Z,31.05
2022-08-19T18:31:17.221Z,31.00
2022-08-19T18:33:44.890Z,30.94
2022-08-19T18:36:11.890Z,30.89
2022-08-19T18:38:57.084Z,30.84
2022-08-19T18:41:42.929Z,30.82
2022-08-19T18:44:28.383Z,30.75
2022-08-19T18:47:13.746Z,30.67
2022-08-19T18:49:40.596Z,30.60
2022-08-19T18:52:07.521Z,30.50
2022-08-19T18:54:34.486Z,30.38
2022-08-19T18:57:01.373Z,30.25
2022-08-19T18:59:30.218Z,30.14
2022-08-19T19:01:58.487Z,30.01
2022-08-19T19:04:36.024Z,30.02
2022-08-19T19:07:05.012Z,29.82
2022-08-19T19:09:31.588Z,29.72
2022-08-19T19:12:00.832Z,29.67
2022-08-19T19:14:48.248Z,29.60
2022-08-19T19:17:15.612Z,29.53
2022-08-19T19:19:44.091Z,29.45
2022-08-19T19:22:17.679Z,29.47
2022-08-19T19:24:44.323Z,29.35
2022-08-19T19:27:13.136Z,29.32
2022-08-19T19:29:40.923Z,29.27
2022-08-19T19:32:17.909Z,29.25
2022-08-19T19:34:45.486Z,29.21
2022-08-19T19:37:12.008Z,29.17
2022-08-19T19:39:46.391Z,29.12
2022-08-19T19:42:20.337Z,29.13
2022-08-19T19:44:49.342Z,29.04
2022-08-19T19:47:17.519Z,29.01
2022-08-19T19:50:10.779Z,28.98
2022-08-19T19:52:31.998Z,28.96
2022-08-19T19:54:58.597Z,28.93
2022-08-19T19:57:26.774Z,28.90
2022-08-19T19:59:54.298Z,28.87
2022-08-19T20:02:22.034Z,28.85
2022-08-19T20:04:49.491Z,28.81
2022-08-19T20:07:15.997Z,28.79
2022-08-19T20:09:58.778Z,28.73
2022-08-19T20:12:26.541Z,28.70
2022-08-19T20:14:53.053Z,28.63
2022-08-19T20:17:20.740Z,28.58
2022-08-19T20:19:48.013Z,28.54
2022-08-19T20:22:14.688Z,28.49
2022-08-19T20:24:42.689Z,28.46
2022-08-19T20:27:10.733Z,28.40
2022-08-19T20:29:41.550Z,28.37
2022-08-19T20:32:10.329Z,28.33
2022-08-19T20:34:37.480Z,28.29
2022-08-19T20:37:04.715Z,28.25
2022-08-19T20:39:31.267Z,28.22
2022-08-19T20:41:57.804Z,28.19
2022-08-19T20:44:25.497Z,28.17
2022-08-19T20:46:55.533Z,28.14
2022-08-19T20:49:27.461Z,28.10
2022-08-19T20:51:55.222Z,28.08
2022-08-19T20:54:21.864Z,28.06
2022-08-19T20:56:48.418Z,28.04
2022-08-19T20:59:15.002Z,28.00
2022-08-19T21:01:41.467Z,27.99
2022-08-19T21:04:07.982Z,27.96
2022-08-19T21:06:34.459Z,27.93
2022-08-19T21:09:00.969Z,27.91
2022-08-19T21:11:27.595Z,27.90
2022-08-19T21:13:54.160Z,27.87
2022-08-19T21:16:20.651Z,27.85
2022-08-19T21:18:47.847Z,27.82
2022-08-19T21:21:14.732Z,27.79
2022-08-19T21:23:41.375Z,27.76
2022-08-19T21:26:09.055Z,27.74
2022-08-19T21:28:36.367Z,27.71
2022-08-19T21:31:05.350Z,27.69
2022-08-19T21:33:32.966Z,27.66
2022-08-19T21:36:00.213Z,27.65
2022-08-19T21:38:27.546Z,27.63
2022-08-19T21:40:54.275Z,27.61
2022-08-19T21:43:21.122Z,27.58
2022-08-19T21:45:48.348Z,27.57
2022-08-19T21:48:15.332Z,27.55
2022-08-19T21:50:43.051Z,27.53
2022-08-19T21:53:13.962Z,27.52
2022-08-19T21:55:44.196Z,27.50
2022-08-19T21:58:11.859Z,27.49
2022-08-19T22:00:39.389Z,27.47
2022-08-19T22:03:06.481Z,27.44
2022-08-19T22:05:33.948Z,27.43
2022-08-19T22:08:02.208Z,27.42
2022-08-19T22:10:32.104Z,27.40
2022-08-19T22:12:59.616Z,27.38
2022-08-19T22:15:29.835Z,27.35
2022-08-19T22:18:01.620Z,27.39
2022-08-19T22:20:30.987Z,27.33
2022-08-19T22:23:03.567Z,27.32
2022-08-19T22:25:42.049Z,27.29
2022-08-19T22:28:10.946Z,27.26
2022-08-19T22:30:41.626Z,27.25
2022-08-19T22:33:11.676Z,27.23
2022-08-19T22:35:40.464Z,27.21
2022-08-19T22:38:08.763Z,27.17
2022-08-19T22:40:39.718Z,27.19
2022-08-19T22:43:18.897Z,27.23
2022-08-19T22:45:46.710Z,27.12
2022-08-19T22:48:16.084Z,27.12
2022-08-19T22:51:05.249Z,27.09
2022-08-19T22:53:33.757Z,27.07
2022-08-19T22:56:00.569Z,27.02
2022-08-19T22:58:28.077Z,27.01
2022-08-19T23:00:54.882Z,26.98
2022-08-19T23:03:21.747Z,26.97
2022-08-19T23:05:48.266Z,26.94
2022-08-19T23:42:27.315Z,27.20
2022-08-19T23:44:59.322Z,26.77
2022-08-19T23:47:25.858Z,26.67
2022-08-19T23:49:53.398Z,26.63
2022-08-19T23:52:19.960Z,26.58
2022-08-19T23:54:46.486Z,26.56
2022-08-19T23:57:14.590Z,26.53
2022-08-19T23:59:42.602Z,26.51
